Time;durP1;ratioP1;P1;durP2;ratioP2;P2;SDS_P1;SDS_P2;PMS_P1;PMS_P2;Temp;Humidity;BMP_temperature;BMP_pressure;BME280_temperature;BME280_humidity;BME280_pressure;Samples;Min_cycle;Max_cycle;Signal;HPM_P1;HPM_P2
2022/08/21 00:01:41;;;;;;;9.63;5.53;;;13.40;99.90;;;;;;8281370;28;20034;-77
2022/08/21 00:05:49;;;;;;;9.32;5.45;;;13.30;99.90;;;;;;8274858;28;20056;-78
2022/08/21 00:09:49;;;;;;;12.50;5.88;;;13.10;99.90;;;;;;8272433;28;20120;-78
2022/08/21 00:13:50;;;;;;;10.95;6.00;;;13.20;99.90;;;;;;8274945;28;20399;-78
2022/08/21 00:17:50;;;;;;;10.05;6.30;;;13.20;99.90;;;;;;8284264;28;20052;-78
2022/08/21 00:21:53;;;;;;;11.45;6.18;;;13.40;99.90;;;;;;8270091;28;20031;-78
2022/08/21 00:25:53;;;;;;;12.52;5.75;;;13.30;99.90;;;;;;8278079;28;20037;-78
2022/08/21 00:29:55;;;;;;;11.95;6.00;;;13.30;99.90;;;;;;8272207;28;20500;-78
2022/08/21 00:33:55;;;;;;;11.70;6.43;;;13.40;99.90;;;;;;8269893;23;20046;-90
2022/08/21 00:37:56;;;;;;;12.77;6.63;;;13.20;99.90;;;;;;8263246;28;20036;-90
2022/08/21 00:41:57;;;;;;;13.60;6.50;;;13.20;99.90;;;;;;8261561;28;20596;-90
2022/08/21 00:45:59;;;;;;;12.65;7.03;;;13.20;99.90;;;;;;8268504;28;20064;-90
2022/08/21 00:50:00;;;;;;;15.30;7.57;;;13.10;99.90;;;;;;8269142;28;20388;-90
2022/08/21 00:54:03;;;;;;;13.57;7.18;;;13.10;99.90;;;;;;8271375;28;20022;-91
2022/08/21 00:58:07;;;;;;;13.80;6.63;;;13.10;99.90;;;;;;8274485;28;20029;-91
2022/08/21 01:02:09;;;;;;;14.77;7.18;;;13.20;99.90;;;;;;8269637;28;20018;-91
2022/08/21 01:06:09;;;;;;;14.40;8.30;;;13.30;99.90;;;;;;8267088;28;20025;-90
2022/08/21 01:10:12;;;;;;;16.52;7.82;;;13.30;99.90;;;;;;8267110;28;20076;-91
2022/08/21 01:14:14;;;;;;;15.80;6.50;;;13.30;99.90;;;;;;8286317;28;20064;-91
2022/08/21 01:18:16;;;;;;;16.15;6.60;;;13.10;99.90;;;;;;8272228;28;20203;-91
2022/08/21 01:22:17;;;;;;;12.63;6.60;;;13.00;99.90;;;;;;8275209;28;20018;-91
2022/08/21 01:26:23;;;;;;;14.73;7.18;;;13.00;99.90;;;;;;8273817;28;20044;-90
2022/08/21 01:30:27;;;;;;;13.50;6.55;;;13.10;99.90;;;;;;8273501;28;20043;-93
2022/08/21 01:34:27;;;;;;;16.38;7.10;;;13.00;99.90;;;;;;8268223;28;20581;-92
2022/08/21 01:38:28;;;;;;;11.40;6.32;;;12.90;99.90;;;;;;8279041;28;20025;-92
2022/08/21 01:42:29;;;;;;;13.55;6.10;;;12.80;99.90;;;;;;8271324;28;20508;-92
2022/08/21 01:46:30;;;;;;;10.60;6.18;;;12.80;99.90;;;;;;8267520;28;20030;-93
2022/08/21 01:50:30;;;;;;;13.65;5.57;;;12.90;99.90;;;;;;8275762;28;20023;-92
2022/08/21 01:54:32;;;;;;;10.50;5.65;;;12.80;99.90;;;;;;8274089;28;20034;-92
2022/08/21 01:58:33;;;;;;;12.55;5.03;;;12.80;99.90;;;;;;8262667;28;20026;-92
2022/08/21 02:02:34;;;;;;;10.90;5.57;;;12.60;99.90;;;;;;8274348;28;20589;-93
2022/08/21 02:06:35;;;;;;;12.38;5.90;;;12.60;99.90;;;;;;8280993;28;20030;-93
2022/08/21 02:10:35;;;;;;;14.13;5.63;;;12.50;99.90;;;;;;8277962;28;20484;-92
2022/08/21 02:14:36;;;;;;;13.07;5.88;;;12.40;99.90;;;;;;8267957;28;20038;-91
2022/08/21 02:18:37;;;;;;;11.85;5.57;;;12.50;99.90;;;;;;8261948;28;20030;-92
2022/08/21 02:22:38;;;;;;;9.73;5.18;;;12.30;99.90;;;;;;8280689;28;20029;-92
2022/08/21 02:26:39;;;;;;;7.15;4.30;;;12.10;99.90;;;;;;8271924;28;20077;-92
2022/08/21 02:30:43;;;;;;;7.15;4.28;;;12.00;99.90;;;;;;8264305;28;20408;-92
2022/08/21 02:34:44;;;;;;;49.50;6.07;;;11.90;99.90;;;;;;8271472;28;20033;-92
2022/08/21 02:38:44;;;;;;;11.57;4.72;;;11.80;99.90;;;;;;8268708;28;20031;-92
2022/08/21 02:42:45;;;;;;;8.43;4.55;;;11.60;99.90;;;;;;8270586;28;20060;-93
2022/08/21 02:46:46;;;;;;;132.50;8.43;;;11.60;99.90;;;;;;8268167;28;20030;-92
2022/08/21 02:50:51;;;;;;;23.65;7.13;;;11.60;99.90;;;;;;8266215;28;20027;-92
2022/08/21 02:54:52;;;;;;;16.23;7.15;;;11.60;99.90;;;;;;8278504;28;20025;-92
2022/08/21 02:58:52;;;;;;;15.02;7.50;;;11.80;99.90;;;;;;8274390;28;20054;-93
2022/08/21 03:02:55;;;;;;;13.40;6.63;;;11.80;99.90;;;;;;8264053;28;20058;-93
2022/08/21 03:06:56;;;;;;;9.10;5.25;;;11.80;99.90;;;;;;8263429;28;20419;-92
2022/08/21 03:10:57;;;;;;;14.15;5.50;;;11.50;99.90;;;;;;8271179;28;20018;-92
2022/08/21 03:14:58;;;;;;;14.63;5.30;;;11.60;99.90;;;;;;8274919;28;20095;-93
2022/08/21 03:18:59;;;;;;;15.23;6.00;;;11.50;99.90;;;;;;8271763;28;20077;-92
2022/08/21 03:23:01;;;;;;;9.13;5.35;;;11.40;99.90;;;;;;8269526;28;20093;-93
2022/08/21 03:27:01;;;;;;;14.50;6.22;;;11.40;99.90;;;;;;8274434;28;20286;-93
2022/08/21 03:31:02;;;;;;;12.63;5.60;;;11.50;99.90;;;;;;8270944;28;20044;-93
2022/08/21 03:35:04;;;;;;;11.73;5.20;;;11.30;99.90;;;;;;8271704;28;20387;-93
2022/08/21 03:39:05;;;;;;;16.70;6.88;;;11.30;99.90;;;;;;8262888;28;20022;-93
2022/08/21 03:43:08;;;;;;;12.50;6.35;;;11.40;99.90;;;;;;8262443;28;20022;-93
2022/08/21 03:47:09;;;;;;;12.43;6.03;;;11.40;99.90;;;;;;8266217;28;20026;-92
2022/08/21 03:51:10;;;;;;;13.55;5.90;;;11.40;99.90;;;;;;8275094;28;20021;-93
2022/08/21 03:55:10;;;;;;;9.68;5.22;;;11.40;99.90;;;;;;8257968;28;20389;-93
2022/08/21 03:59:11;;;;;;;9.18;4.93;;;11.30;99.90;;;;;;8267695;28;20026;-93
2022/08/21 04:03:12;;;;;;;9.98;5.35;;;11.00;99.90;;;;;;8263551;28;20025;-92
2022/08/21 04:07:12;;;;;;;11.23;5.28;;;10.90;99.90;;;;;;8268003;28;20022;-91
2022/08/21 04:11:14;;;;;;;12.25;5.03;;;10.90;99.90;;;;;;8268017;28;20396;-92
2022/08/21 04:15:15;;;;;;;62.42;7.35;;;10.90;99.90;;;;;;8269785;28;20022;-93
2022/08/21 04:19:15;;;;;;;41.03;6.50;;;10.80;99.90;;;;;;8278951;28;20021;-93
2022/08/21 04:23:20;;;;;;;125.95;6.93;;;11.00;99.90;;;;;;8265772;28;20034;-93
2022/08/21 04:27:20;;;;;;;57.75;5.90;;;10.90;99.90;;;;;;8261791;28;20675;-92
2022/08/21 04:31:21;;;;;;;26.73;5.10;;;11.00;99.90;;;;;;8271911;28;20029;-93
2022/08/21 04:35:23;;;;;;;28.73;5.57;;;11.00;99.90;;;;;;8265619;28;20029;-93
2022/08/21 04:39:24;;;;;;;12.38;5.38;;;11.10;99.90;;;;;;8262295;28;20100;-93
2022/08/21 04:43:25;;;;;;;17.30;5.68;;;11.10;99.90;;;;;;8272472;28;20044;-93
2022/08/21 04:47:26;;;;;;;13.20;6.03;;;11.10;99.90;;;;;;8269699;28;20027;-93
2022/08/21 04:51:34;;;;;;;13.85;6.18;;;11.20;99.90;;;;;;8260241;28;20027;-93
2022/08/21 04:55:36;;;;;;;12.50;5.82;;;11.20;99.90;;;;;;8280564;28;20480;-92
2022/08/21 04:59:42;;;;;;;18.85;5.80;;;11.20;99.90;;;;;;8255534;28;20085;-93
2022/08/21 05:03:44;;;;;;;15.80;6.10;;;11.30;99.90;;;;;;8260237;28;20045;-93
2022/08/21 05:07:45;;;;;;;12.90;5.65;;;11.50;99.90;;;;;;8272165;28;20054;-93
2022/08/21 05:11:46;;;;;;;13.45;5.68;;;11.60;99.90;;;;;;8272246;28;20543;-93
2022/08/21 05:15:46;;;;;;;11.15;5.32;;;11.60;99.90;;;;;;8263363;28;20049;-93
2022/08/21 05:19:47;;;;;;;20.23;5.50;;;11.90;99.90;;;;;;8263461;28;20022;-93
2022/08/21 05:23:47;;;;;;;35.72;6.05;;;12.20;99.90;;;;;;8257388;28;20058;-91
2022/08/21 05:27:48;;;;;;;10.63;5.45;;;12.20;99.90;;;;;;8270621;28;20030;-92
2022/08/21 05:31:49;;;;;;;14.68;5.93;;;12.60;99.90;;;;;;8261798;28;20030;-91
2022/08/21 05:35:51;;;;;;;17.75;5.68;;;12.60;99.90;;;;;;8261294;28;20034;-92
2022/08/21 05:39:52;;;;;;;10.38;5.57;;;12.70;99.90;;;;;;8269948;28;20025;-92
2022/08/21 05:43:53;;;;;;;10.80;5.93;;;12.90;99.90;;;;;;8271320;28;20080;-92
2022/08/21 05:47:54;;;;;;;12.43;6.43;;;12.80;99.90;;;;;;8273454;28;20029;-93
2022/08/21 05:51:54;;;;;;;88.20;11.60;;;12.90;99.90;;;;;;8271975;28;20030;-92
2022/08/21 05:55:55;;;;;;;8.40;6.22;;;13.30;99.90;;;;;;8272430;28;20022;-90
2022/08/21 05:59:55;;;;;;;4.72;4.15;;;14.60;99.90;;;;;;8266010;28;20026;-91
2022/08/21 06:03:56;;;;;;;3.50;3.20;;;15.50;99.90;;;;;;8270316;28;20030;-91
2022/08/21 06:07:56;;;;;;;4.07;2.88;;;16.30;99.90;;;;;;8285429;28;20029;-90
2022/08/21 06:11:57;;;;;;;3.13;2.83;;;16.50;99.90;;;;;;8269827;28;20029;-91
2022/08/21 06:16:10;;;;;;;4.13;2.65;;;16.80;99.90;;;;;;8285295;28;20026;-92
2022/08/21 06:20:10;;;;;;;3.13;2.83;;;16.20;99.90;;;;;;8268166;28;20026;-91
2022/08/21 06:24:11;;;;;;;3.58;3.28;;;16.10;99.90;;;;;;8274000;28;20068;-90
2022/08/21 06:28:12;;;;;;;4.05;2.75;;;16.50;99.90;;;;;;8275191;28;20090;-92
2022/08/21 06:32:13;;;;;;;3.03;2.55;;;17.30;99.90;;;;;;8271116;28;21398;-91
2022/08/21 06:36:15;;;;;;;2.72;2.30;;;18.10;99.90;;;;;;8271386;28;20057;-91
2022/08/21 06:40:15;;;;;;;3.20;2.17;;;18.30;99.90;;;;;;8274236;28;20037;-92
2022/08/21 06:44:17;;;;;;;1.90;1.80;;;19.10;99.90;;;;;;8278548;28;20026;-91
2022/08/21 06:48:18;;;;;;;2.03;1.85;;;20.30;99.90;;;;;;8289900;28;20018;-91
2022/08/21 06:52:19;;;;;;;1.70;1.60;;;20.60;99.90;;;;;;8268204;28;20022;-93
2022/08/21 06:56:20;;;;;;;1.70;1.60;;;20.80;99.90;;;;;;8274314;28;20097;-91
2022/08/21 07:00:21;;;;;;;2.08;1.70;;;20.60;99.90;;;;;;8265442;28;20034;-92
2022/08/21 07:04:21;;;;;;;2.78;1.92;;;20.70;99.90;;;;;;8262540;28;20034;-92
2022/08/21 07:08:22;;;;;;;1.90;1.70;;;21.50;99.90;;;;;;8260430;28;20026;-92
2022/08/21 07:12:23;;;;;;;2.35;1.70;;;21.50;99.90;;;;;;8281308;28;20026;-92
2022/08/21 07:16:23;;;;;;;2.00;1.70;;;21.30;99.90;;;;;;8265383;28;20030;-92
2022/08/21 07:20:24;;;;;;;2.85;1.67;;;21.70;99.90;;;;;;8260688;28;20050;-92
2022/08/21 07:24:24;;;;;;;1.70;1.60;;;21.70;99.90;;;;;;8266052;28;20026;-92
2022/08/21 07:28:25;;;;;;;1.70;1.60;;;21.30;99.90;;;;;;8253896;28;20022;-91
2022/08/21 07:32:26;;;;;;;2.40;1.67;;;21.50;99.90;;;;;;8255989;28;20019;-92
2022/08/21 07:36:29;;;;;;;2.10;1.77;;;22.00;99.90;;;;;;8276688;28;20030;-92
2022/08/21 07:40:30;;;;;;;3.88;1.85;;;22.80;99.90;;;;;;8263626;28;20030;-90
2022/08/21 07:44:34;;;;;;;2.10;1.90;;;23.10;99.90;;;;;;8247735;28;20026;-91
2022/08/21 07:48:35;;;;;;;3.10;1.88;;;23.20;99.90;;;;;;8264628;28;20033;-91
2022/08/21 07:52:36;;;;;;;2.13;1.70;;;23.30;99.90;;;;;;8265185;28;20034;-91
2022/08/21 07:56:37;;;;;;;2.88;1.80;;;23.50;99.90;;;;;;8263383;28;20027;-91
2022/08/21 08:00:41;;;;;;;3.33;1.80;;;23.60;99.90;;;;;;8255427;28;20114;-92
2022/08/21 08:04:41;;;;;;;1.85;1.50;;;23.60;99.90;;;;;;8260263;28;20038;-92
2022/08/21 08:09:11;;;;;;;2.28;1.80;;;24.30;99.90;;;;;;8258948;28;20150;-90
2022/08/21 08:13:12;;;;;;;2.85;2.20;;;25.00;99.90;;;;;;8253445;28;20039;-93
2022/08/21 08:17:15;;;;;;;2.03;1.80;;;24.80;99.90;;;;;;8271969;28;20045;-92
2022/08/21 08:21:22;;;;;;;3.92;2.10;;;24.90;99.90;;;;;;8261770;28;20275;-92
2022/08/21 08:25:25;;;;;;;2.60;2.40;;;25.00;99.90;;;;;;8264575;28;20026;-92
2022/08/21 08:29:31;;;;;;;3.85;2.47;;;25.30;99.90;;;;;;8259353;28;20042;-93
2022/08/21 08:33:32;;;;;;;2.88;2.38;;;25.00;99.90;;;;;;8267566;28;20041;-93
2022/08/21 08:37:41;;;;;;;3.70;2.35;;;25.10;99.90;;;;;;8254612;28;20038;-94
2022/08/21 08:41:44;;;;;;;2.95;1.85;;;25.50;99.90;;;;;;8281081;28;20026;-94
2022/08/21 08:45:49;;;;;;;2.17;1.90;;;25.30;99.90;;;;;;8282766;28;20018;-94
2022/08/21 08:50:00;;;;;;;2.33;1.75;;;25.70;99.90;;;;;;8285083;28;20045;-93
2022/08/21 08:54:08;;;;;;;4.00;2.13;;;25.80;99.90;;;;;;8284906;28;20086;-92
2022/08/21 08:58:29;;;;;;;3.70;2.00;;;25.40;99.90;;;;;;8284715;28;20085;-94
2022/08/21 09:02:30;;;;;;;3.05;1.65;;;25.30;99.90;;;;;;8291317;28;20026;-93
2022/08/21 09:06:52;;;;;;;3.08;1.95;;;25.50;99.90;;;;;;8284961;28;20094;-93
2022/08/21 09:11:19;;;;;;;4.85;2.03;;;25.60;99.90;;;;;;8281050;28;20018;-90
2022/08/21 09:15:39;;;;;;;4.57;1.98;;;25.70;99.90;;;;;;8286149;28;20018;-92
2022/08/21 09:19:59;;;;;;;2.92;2.00;;;26.00;99.90;;;;;;8296826;28;20042;-91
2022/08/21 09:24:33;;;;;;;2.40;2.00;;;26.20;99.90;;;;;;8297915;28;20041;-93
2022/08/21 09:28:35;;;;;;;5.32;2.15;;;25.80;99.90;;;;;;8325956;23;20125;-77
2022/08/21 09:32:39;;;;;;;5.18;1.80;;;25.40;99.90;;;;;;8338614;28;20021;-77
2022/08/21 09:36:48;;;;;;;4.72;2.08;;;25.30;99.90;;;;;;8322777;28;20051;-77
2022/08/21 09:40:56;;;;;;;3.63;2.08;;;25.60;99.90;;;;;;8343068;28;20031;-77
2022/08/21 09:45:16;;;;;;;2.92;1.85;;;25.60;99.90;;;;;;8320144;28;20090;-79
2022/08/21 09:49:28;;;;;;;4.18;2.40;;;25.30;99.80;;;;;;8337413;28;20043;-76
2022/08/21 09:53:31;;;;;;;4.72;2.38;;;25.00;99.90;;;;;;8316570;28;20622;-78
2022/08/21 09:57:46;;;;;;;8.40;4.40;;;25.00;99.90;;;;;;8340226;28;20029;-78
2022/08/21 10:01:51;;;;;;;4.47;2.20;;;25.30;99.90;;;;;;8322140;28;20035;-78
2022/08/21 10:06:00;;;;;;;4.03;2.40;;;25.70;99.90;;;;;;8320229;28;20056;-78
2022/08/21 10:10:03;;;;;;;3.60;2.10;;;25.50;99.90;;;;;;8320075;28;20581;-77
2022/08/21 10:14:13;;;;;;;5.38;2.15;;;25.70;99.90;;;;;;8344608;28;20433;-77
2022/08/21 10:18:32;;;;;;;;;;;25.90;99.90;;;;;;8343870;22;20225;-92
2022/08/21 10:22:59;;;;;;;5.90;2.50;;;25.80;99.90;;;;;;8335717;28;20581;-92
2022/08/21 10:27:18;;;;;;;4.18;2.22;;;24.90;99.50;;;;;;8317033;28;20022;-92
2022/08/21 10:32:07;;;;;;;4.85;2.25;;;25.30;99.90;;;;;;8331522;28;20045;-91
2022/08/21 10:36:26;;;;;;;3.25;2.25;;;26.60;99.90;;;;;;8309139;28;20052;-91
2022/08/21 10:40:48;;;;;;;5.47;2.40;;;26.40;93.20;;;;;;8310192;28;20059;-93
2022/08/21 10:45:08;;;;;;;3.90;2.00;;;27.00;95.80;;;;;;8295007;28;20033;-93
2022/08/21 10:49:22;;;;;;;2.85;2.10;;;28.20;94.80;;;;;;8290504;28;20093;-93
2022/08/21 10:53:25;;;;;;;3.00;2.00;;;29.10;94.00;;;;;;8296031;28;20066;-93
2022/08/21 10:57:46;;;;;;;4.30;2.38;;;30.10;93.40;;;;;;8346873;23;20470;-80
2022/08/21 11:01:50;;;;;;;;;;;29.70;88.20;;;;;;8293841;28;20068;-81
2022/08/21 11:05:55;;;;;;;3.42;2.10;;;28.50;85.50;;;;;;8296537;28;19945;-80
2022/08/21 11:10:00;;;;;;;4.15;2.10;;;27.00;93.20;;;;;;8292691;28;20115;-80
2022/08/21 11:14:08;;;;;;;4.82;2.20;;;27.40;91.50;;;;;;8303401;28;20624;-80
2022/08/21 11:18:33;;;;;;;5.13;2.40;;;29.20;87.00;;;;;;8292204;28;20491;-79
2022/08/21 11:23:05;;;;;;;2.20;1.67;;;30.20;91.90;;;;;;8304910;28;20029;-79
2022/08/21 11:27:25;;;;;;;5.45;2.20;;;31.10;81.20;;;;;;8305808;28;20022;-80
2022/08/21 11:31:51;;;;;;;3.90;2.08;;;31.70;74.30;;;;;;8310509;28;20460;-79
2022/08/21 11:36:14;;;;;;;5.50;2.17;;;29.50;81.50;;;;;;8289860;28;20075;-78
2022/08/21 11:40:46;;;;;;;3.50;2.47;;;27.50;85.00;;;;;;8302787;28;20061;-79
2022/08/21 11:45:05;;;;;;;;;;;27.20;90.10;;;;;;8302295;28;20045;-79
2022/08/21 11:49:36;;;;;;;3.15;2.10;;;26.20;88.40;;;;;;8286051;28;21341;-80
2022/08/21 11:54:27;;;;;;;4.88;2.35;;;25.30;92.80;;;;;;8283762;28;20026;-80
2022/08/21 11:58:38;;;;;;;3.15;1.70;;;24.40;95.40;;;;;;8187872;28;20411;-81
2022/08/21 12:02:48;;;;;;;3.90;2.15;;;26.00;90.10;;;;;;8306289;28;20092;-80
2022/08/21 12:06:49;;;;;;;2.83;1.95;;;29.40;92.50;;;;;;8297916;28;20415;-79
2022/08/21 12:11:01;;;;;;;4.57;1.90;;;31.40;80.60;;;;;;8287944;28;20021;-79
2022/08/21 12:15:22;;;;;;;4.53;2.13;;;30.30;82.70;;;;;;8303263;28;20080;-77
2022/08/21 12:19:25;;;;;;;4.32;2.30;;;29.10;80.60;;;;;;8285006;28;20033;-79
2022/08/21 12:23:47;;;;;;;4.90;1.95;;;30.70;76.40;;;;;;8288390;28;20053;-79
2022/08/21 12:27:53;;;;;;;3.90;2.13;;;30.20;80.00;;;;;;8287433;28;20040;-79
2022/08/21 12:32:00;;;;;;;2.22;1.52;;;29.50;74.20;;;;;;8286058;28;20038;-79
2022/08/21 12:36:13;;;;;;;2.90;1.60;;;30.40;68.00;;;;;;8285279;28;20028;-80
2022/08/21 12:40:20;;;;;;;3.08;2.15;;;30.20;67.20;;;;;;8295873;28;20027;-79
2022/08/21 12:44:35;;;;;;;3.42;2.15;;;29.70;67.40;;;;;;8309589;28;20025;-80
2022/08/21 12:48:51;;;;;;;2.55;1.90;;;29.50;72.20;;;;;;8314602;28;20022;-80
2022/08/21 12:53:04;;;;;;;1.90;1.52;;;31.80;63.60;;;;;;8294506;28;20108;-79
2022/08/21 12:57:07;;;;;;;3.50;1.75;;;33.10;60.00;;;;;;8300514;28;20030;-79
2022/08/21 13:01:42;;;;;;;1.95;1.75;;;32.70;62.40;;;;;;8308464;28;20034;-79
2022/08/21 13:05:43;;;;;;;2.17;1.67;;;32.30;62.30;;;;;;8255234;28;20095;-80
2022/08/21 13:09:48;;;;;;;3.03;1.60;;;34.50;59.40;;;;;;8285526;28;20084;-80
2022/08/21 13:13:50;;;;;;;4.45;1.33;;;35.50;54.90;;;;;;8287693;28;20030;-80
2022/08/21 13:17:51;;;;;;;1.92;1.42;;;36.50;50.50;;;;;;8307894;28;20514;-80
2022/08/21 13:21:52;;;;;;;2.08;1.35;;;37.80;47.70;;;;;;8284759;28;20052;-81
2022/08/21 13:25:54;;;;;;;1.60;1.30;;;37.40;45.70;;;;;;8297197;28;20447;-82
2022/08/21 13:30:12;;;;;;;3.38;2.08;;;37.60;43.10;;;;;;8289530;28;20120;-81
2022/08/21 13:34:14;;;;;;;1.92;1.35;;;38.20;44.60;;;;;;8287062;28;20093;-80
2022/08/21 13:38:21;;;;;;;3.22;1.50;;;37.90;43.10;;;;;;8289198;28;20449;-82
2022/08/21 13:42:24;;;;;;;2.08;1.60;;;37.80;46.10;;;;;;8307909;28;20395;-81
2022/08/21 13:46:28;;;;;;;2.28;1.55;;;37.60;46.80;;;;;;8308513;28;20048;-80
2022/08/21 13:50:29;;;;;;;2.05;1.63;;;36.40;47.90;;;;;;8293014;28;20631;-80
2022/08/21 13:54:39;;;;;;;3.47;1.77;;;34.40;47.90;;;;;;8309181;28;20033;-81
2022/08/21 13:58:46;;;;;;;1.63;1.48;;;34.60;45.50;;;;;;8287636;28;20069;-81
2022/08/21 14:02:51;;;;;;;1.58;1.38;;;34.80;47.50;;;;;;8308440;28;20040;-80
2022/08/21 14:06:52;;;;;;;1.30;1.20;;;34.00;46.40;;;;;;8295962;28;20025;-80
2022/08/21 14:10:53;;;;;;;6.93;1.65;;;35.30;46.90;;;;;;8300718;28;20465;-80
2022/08/21 14:14:56;;;;;;;4.55;1.90;;;36.50;45.60;;;;;;8318875;28;20022;-80
2022/08/21 14:18:59;;;;;;;2.65;1.50;;;36.60;41.80;;;;;;8301712;28;20410;-81
2022/08/21 14:23:00;;;;;;;2.92;1.63;;;37.70;42.30;;;;;;8297609;28;20053;-80
2022/08/21 14:27:04;;;;;;;2.22;1.77;;;38.00;42.30;;;;;;8300311;28;20026;-79
2022/08/21 14:31:15;;;;;;;1.88;1.60;;;35.60;47.60;;;;;;8314040;28;20021;-81
2022/08/21 14:35:17;;;;;;;3.40;1.90;;;32.80;56.00;;;;;;8316134;28;20029;-79
2022/08/21 14:39:18;;;;;;;2.20;1.40;;;33.60;51.10;;;;;;8313402;28;20096;-80
2022/08/21 14:43:20;;;;;;;2.13;1.80;;;35.10;48.80;;;;;;8310606;28;20022;-80
2022/08/21 14:47:21;;;;;;;1.98;1.77;;;34.60;50.10;;;;;;8312246;28;20404;-80
2022/08/21 14:51:22;;;;;;;4.18;1.63;;;33.60;52.30;;;;;;8316401;28;20010;-79
2022/08/21 14:55:23;;;;;;;3.10;1.98;;;35.40;46.70;;;;;;8314650;28;20184;-80
2022/08/21 14:59:25;;;;;;;2.95;1.88;;;34.40;50.30;;;;;;8298067;28;20034;-80
2022/08/21 15:03:26;;;;;;;3.58;1.80;;;32.40;50.10;;;;;;8295432;28;20034;-81
2022/08/21 15:07:26;;;;;;;3.17;1.60;;;31.50;51.10;;;;;;8297224;28;20606;-81
2022/08/21 15:11:27;;;;;;;2.22;1.70;;;32.90;49.00;;;;;;8293607;28;20022;-80
2022/08/21 15:15:49;;;;;;;3.67;1.83;;;34.50;47.10;;;;;;8316147;28;20014;-81
2022/08/21 15:19:50;;;;;;;1.73;1.50;;;34.20;49.90;;;;;;8305333;28;20529;-80
2022/08/21 15:23:51;;;;;;;3.28;1.73;;;33.80;46.10;;;;;;8298306;28;20029;-81
2022/08/21 15:27:51;;;;;;;2.17;1.70;;;36.40;45.10;;;;;;8302658;28;20033;-81
2022/08/21 15:31:56;;;;;;;1.88;1.50;;;35.20;48.50;;;;;;8284515;28;20590;-81
2022/08/21 15:35:57;;;;;;;3.65;1.80;;;37.40;44.60;;;;;;8294241;28;20640;-81
2022/08/21 15:39:57;;;;;;;3.28;1.55;;;38.40;44.60;;;;;;8312953;28;20041;-80
2022/08/21 15:43:58;;;;;;;3.53;1.80;;;36.10;47.10;;;;;;8284898;28;20457;-80
2022/08/21 15:47:59;;;;;;;4.38;1.50;;;35.50;45.80;;;;;;8304040;28;20035;-81
2022/08/21 15:51:59;;;;;;;2.90;1.60;;;36.70;44.00;;;;;;8317581;28;20364;-80
2022/08/21 15:56:01;;;;;;;2.65;1.58;;;35.30;43.20;;;;;;8305549;28;20082;-80
2022/08/21 16:00:23;;;;;;;3.45;1.88;;;31.70;54.70;;;;;;8312427;28;20037;-79
2022/08/21 16:04:26;;;;;;;3.55;1.75;;;28.40;60.50;;;;;;8309337;28;20029;-78
2022/08/21 16:08:27;;;;;;;3.67;1.75;;;26.50;63.80;;;;;;8324416;28;20137;-79
2022/08/21 16:12:30;;;;;;;2.20;1.80;;;25.30;62.60;;;;;;8302599;28;20511;-78
2022/08/21 16:16:34;;;;;;;2.63;1.58;;;24.80;61.60;;;;;;8285334;28;20046;-79
2022/08/21 16:20:34;;;;;;;1.90;1.60;;;24.40;66.80;;;;;;8316077;23;20052;-92
2022/08/21 16:24:35;;;;;;;4.85;1.90;;;24.20;70.90;;;;;;8299261;28;20041;-92
2022/08/21 16:28:38;;;;;;;2.47;1.70;;;24.10;72.50;;;;;;8316404;28;20042;-91
2022/08/21 16:32:39;;;;;;;2.17;1.70;;;23.90;81.50;;;;;;8303488;28;20025;-92
2022/08/21 16:36:39;;;;;;;2.83;2.08;;;23.60;79.40;;;;;;8314104;28;20041;-92
2022/08/21 16:40:40;;;;;;;2.92;1.90;;;23.40;82.10;;;;;;8304935;28;20030;-93
2022/08/21 16:44:42;;;;;;;2.80;1.70;;;23.20;78.60;;;;;;8305404;28;20031;-93
2022/08/21 16:48:45;;;;;;;1.75;1.50;;;23.20;79.10;;;;;;8309386;28;20090;-93
2022/08/21 16:52:46;;;;;;;2.78;1.60;;;23.00;84.30;;;;;;8310512;28;20026;-94
2022/08/21 16:56:47;;;;;;;3.17;1.67;;;22.50;81.70;;;;;;8305707;28;20041;-93
2022/08/21 17:00:48;;;;;;;2.22;1.70;;;22.30;82.50;;;;;;8302795;28;20555;-94
2022/08/21 17:04:48;;;;;;;2.45;1.80;;;22.20;83.70;;;;;;8305307;28;20066;-93
2022/08/21 17:08:50;;;;;;;3.63;1.90;;;21.80;88.40;;;;;;8314221;28;20025;-94
2022/08/21 17:12:55;;;;;;;4.07;1.83;;;21.40;90.30;;;;;;8302919;28;20046;-93
2022/08/21 17:16:56;;;;;;;3.00;2.10;;;21.00;91.80;;;;;;8313135;28;20036;-94
2022/08/21 17:20:56;;;;;;;5.43;1.90;;;20.60;92.70;;;;;;8324789;28;20022;-93
2022/08/21 17:24:57;;;;;;;2.13;1.80;;;20.30;97.30;;;;;;8330139;28;20030;-93
2022/08/21 17:28:58;;;;;;;2.83;1.90;;;20.20;99.90;;;;;;8325920;28;20042;-94
2022/08/21 17:33:00;;;;;;;2.70;1.83;;;20.00;99.90;;;;;;8328907;28;20033;-93
2022/08/21 17:37:00;;;;;;;1.85;1.75;;;19.90;99.90;;;;;;8330826;28;20018;-93
2022/08/21 17:41:01;;;;;;;2.65;1.77;;;19.90;99.90;;;;;;8335126;28;20040;-93
2022/08/21 17:45:03;;;;;;;2.50;2.03;;;19.80;99.90;;;;;;8327317;28;20037;-92
2022/08/21 17:49:08;;;;;;;3.15;1.77;;;19.80;99.90;;;;;;8337764;28;20064;-93
2022/08/21 17:53:08;;;;;;;3.13;1.88;;;19.70;99.90;;;;;;8360835;28;20020;-93
2022/08/21 17:57:20;;;;;;;3.55;2.10;;;19.60;99.90;;;;;;8320823;28;20022;-93
2022/08/21 18:01:21;;;;;;;3.17;2.00;;;19.40;99.90;;;;;;8320062;28;20102;-93
2022/08/21 18:05:22;;;;;;;4.13;2.47;;;19.40;99.90;;;;;;8333947;28;20040;-92
2022/08/21 18:09:26;;;;;;;4.10;2.97;;;19.10;99.90;;;;;;8331651;28;20029;-94
2022/08/21 18:13:32;;;;;;;4.38;3.28;;;18.90;99.90;;;;;;8335606;28;20017;-91
2022/08/21 18:17:35;;;;;;;5.55;3.50;;;18.60;99.90;;;;;;8323360;28;20129;-91
2022/08/21 18:21:36;;;;;;;5.10;3.20;;;18.30;99.90;;;;;;8323537;28;20050;-93
2022/08/21 18:25:37;;;;;;;7.93;3.85;;;18.00;99.90;;;;;;8313180;28;20030;-92
2022/08/21 18:29:38;;;;;;;4.68;3.58;;;17.70;99.90;;;;;;8318861;28;20049;-92
2022/08/21 18:33:40;;;;;;;7.15;3.70;;;17.50;99.90;;;;;;8308896;28;20029;-93
2022/08/21 18:37:53;;;;;;;4.57;2.75;;;17.50;99.90;;;;;;8346014;23;20025;-79
2022/08/21 18:41:54;;;;;;;3.50;2.88;;;17.50;99.90;;;;;;8341196;28;20453;-79
2022/08/21 18:45:55;;;;;;;4.53;2.92;;;17.30;99.90;;;;;;8331345;28;20026;-78
2022/08/21 18:49:55;;;;;;;4.57;3.28;;;16.90;99.90;;;;;;8343547;28;20034;-79
2022/08/21 18:53:56;;;;;;;4.07;3.13;;;16.60;99.90;;;;;;8341886;28;20064;-78
2022/08/21 18:57:57;;;;;;;6.82;3.53;;;16.40;99.90;;;;;;8326751;28;20033;-79
2022/08/21 19:01:58;;;;;;;3.95;3.35;;;16.40;99.90;;;;;;8346447;28;20032;-79
2022/08/21 19:06:01;;;;;;;8.88;2.80;;;16.50;99.90;;;;;;8324160;28;20029;-78
2022/08/21 19:10:04;;;;;;;4.40;2.80;;;16.30;99.90;;;;;;8338468;28;20094;-80
2022/08/21 19:14:09;;;;;;;3.88;3.30;;;16.00;99.90;;;;;;8322985;28;20127;-79
2022/08/21 19:18:12;;;;;;;5.63;3.38;;;15.80;99.90;;;;;;8337357;28;20117;-86
2022/08/21 19:22:13;;;;;;;4.85;3.38;;;15.50;99.90;;;;;;8308136;28;20032;-78
2022/08/21 19:26:15;;;;;;;4.32;2.70;;;15.40;99.90;;;;;;8331455;28;20037;-78
2022/08/21 19:30:16;;;;;;;3.53;2.97;;;15.40;99.90;;;;;;8330004;28;20108;-79
2022/08/21 19:34:21;;;;;;;3.53;2.60;;;15.60;99.90;;;;;;8311105;28;20029;-77
2022/08/21 19:38:22;;;;;;;3.75;2.90;;;15.60;99.90;;;;;;8321836;28;20102;-79
2022/08/21 19:42:23;;;;;;;4.10;2.55;;;15.50;99.90;;;;;;8327998;28;20026;-79
2022/08/21 19:46:32;;;;;;;4.13;2.85;;;15.40;99.90;;;;;;8327780;28;20033;-79
2022/08/21 19:50:32;;;;;;;5.03;2.60;;;15.20;99.90;;;;;;8312293;28;20030;-79
2022/08/21 19:54:33;;;;;;;3.65;2.55;;;15.00;99.90;;;;;;8314619;28;20021;-79
2022/08/21 19:58:37;;;;;;;4.55;3.10;;;14.90;99.90;;;;;;8315261;28;20055;-79
2022/08/21 20:02:38;;;;;;;4.78;3.08;;;14.60;99.90;;;;;;8321622;28;20061;-77
2022/08/21 20:06:40;;;;;;;3.00;2.70;;;14.70;99.90;;;;;;8320652;28;20403;-79
2022/08/21 20:10:41;;;;;;;3.47;2.70;;;14.80;99.90;;;;;;8324869;28;20024;-78
2022/08/21 20:14:45;;;;;;;5.97;3.70;;;14.70;99.90;;;;;;8306628;28;20021;-79
2022/08/21 20:18:47;;;;;;;4.05;3.20;;;14.60;99.90;;;;;;8315020;28;20040;-79
2022/08/21 20:22:48;;;;;;;3.58;3.17;;;14.50;99.90;;;;;;8306072;28;20031;-78
2022/08/21 20:26:49;;;;;;;3.92;3.22;;;14.30;99.90;;;;;;8319755;28;20041;-78
2022/08/21 20:30:49;;;;;;;6.15;3.20;;;14.10;99.90;;;;;;8317885;28;20247;-79
2022/08/21 20:34:51;;;;;;;4.05;3.55;;;13.90;99.90;;;;;;8303847;28;20021;-79
2022/08/21 20:38:52;;;;;;;3.97;2.80;;;13.90;99.90;;;;;;8321354;28;20508;-79
2022/08/21 20:42:54;;;;;;;4.10;3.10;;;13.90;99.90;;;;;;8312608;28;20036;-78
2022/08/21 20:46:56;;;;;;;5.05;3.55;;;13.80;99.90;;;;;;8309524;28;20116;-79
2022/08/21 20:51:06;;;;;;;4.70;3.50;;;13.60;99.90;;;;;;8326543;28;20093;-79
2022/08/21 20:55:13;;;;;;;4.20;3.20;;;13.70;99.90;;;;;;8327047;28;20062;-78
2022/08/21 20:59:33;;;;;;;5.03;3.83;;;13.60;99.90;;;;;;8308892;28;20067;-79
2022/08/21 21:03:41;;;;;;;6.78;3.58;;;13.60;99.90;;;;;;8300827;28;20041;-79
2022/08/21 21:08:02;;;;;;;4.25;3.33;;;13.50;99.90;;;;;;8335510;28;20033;-79
2022/08/21 21:12:05;;;;;;;;;;;13.40;99.90;;;;;;8334637;28;20079;-78